Wheatland, Missouri
Current Conditions -  °F | °C
As of 4:55 AM on Thursday 27 Nov 2014 (Local Time) from KGLY Reporting Station
Overcast Overcast  
Wind Chill: 24°   Ceiling: 1600
Heat Index: 32°   Visibility: 8mi
Dew Point: 27°   Wind: 10mph
Humidity: 80%   Direction: 330°NNW
Pressure: 30.48"   Gusts: NA
Location:  37.95°N, 93.4°W
Report Text: KGLY 271055Z AUTO 33009KT 8SM OVC016 00/M03 A3048 RMK AO2
Loading
Personal Weather Stations






























Interactive Weather Map New forecast layout! Learn more

10-Day Weather Forecast

Advertisements
Track Severe Weather on mobile